createdAt,value
2022-11-19T00:00:09.841Z,2.40
2022-11-19T00:01:09.877Z,2.70
2022-11-19T00:02:09.851Z,2.70
2022-11-19T00:03:09.810Z,2.60
2022-11-19T00:04:09.784Z,2.60
2022-11-19T00:05:09.787Z,2.60
2022-11-19T00:06:09.781Z,2.60
2022-11-19T00:07:09.906Z,2.80
2022-11-19T00:08:09.742Z,3.00
2022-11-19T00:09:09.749Z,2.70
2022-11-19T00:10:09.717Z,2.80
2022-11-19T00:11:10.106Z,2.90
2022-11-19T00:12:09.720Z,3.00
2022-11-19T00:13:09.700Z,2.90
2022-11-19T00:14:09.683Z,2.90
2022-11-19T00:15:09.675Z,3.00
2022-11-19T00:16:09.655Z,2.80
2022-11-19T00:17:09.656Z,2.70
2022-11-19T00:18:09.657Z,3.10
2022-11-19T00:19:09.616Z,3.00
2022-11-19T00:20:09.634Z,2.70
2022-11-19T00:21:09.591Z,3.00
2022-11-19T00:22:09.594Z,3.00
2022-11-19T00:23:09.590Z,2.90
2022-11-19T00:24:09.600Z,3.00
2022-11-19T00:25:09.561Z,3.10
2022-11-19T00:26:09.565Z,2.80
2022-11-19T00:27:09.556Z,2.90
2022-11-19T00:28:09.532Z,2.70
2022-11-19T00:29:10.864Z,3.00
2022-11-19T00:30:19.912Z,2.70
2022-11-19T00:31:10.478Z,3.00
2022-11-19T00:32:09.520Z,3.00
2022-11-19T00:33:09.485Z,2.70
2022-11-19T00:34:09.459Z,2.90
2022-11-19T00:35:09.466Z,3.00
2022-11-19T00:36:09.425Z,3.00
2022-11-19T00:37:09.464Z,3.10
2022-11-19T00:38:09.451Z,3.10
2022-11-19T00:39:09.454Z,2.60
2022-11-19T00:40:09.545Z,2.90
2022-11-19T00:41:09.368Z,2.80
2022-11-19T00:42:09.362Z,2.80
2022-11-19T00:43:09.352Z,2.90
2022-11-19T00:44:09.336Z,2.90
2022-11-19T00:45:09.342Z,3.00
2022-11-19T00:46:09.341Z,3.10
2022-11-19T00:47:09.301Z,2.90
2022-11-19T00:48:09.305Z,3.00
2022-11-19T00:49:09.302Z,3.10
2022-11-19T00:50:09.274Z,3.00
2022-11-19T00:51:09.270Z,2.70
2022-11-19T00:52:09.290Z,3.00
2022-11-19T00:53:09.236Z,2.80
2022-11-19T00:54:09.289Z,3.00
2022-11-19T00:55:09.246Z,3.00
2022-11-19T00:56:09.213Z,3.00
2022-11-19T00:57:09.208Z,3.00
2022-11-19T00:58:09.187Z,3.10
2022-11-19T00:59:09.179Z,3.10
2022-11-19T01:00:09.183Z,3.00
2022-11-19T01:01:09.255Z,3.20
2022-11-19T01:02:09.150Z,3.00
2022-11-19T01:03:09.145Z,3.10
2022-11-19T01:04:09.164Z,3.50
2022-11-19T01:05:09.115Z,3.30
2022-11-19T01:06:09.128Z,3.40
2022-11-19T01:07:09.122Z,3.20
2022-11-19T01:08:09.078Z,3.10
2022-11-19T01:09:09.057Z,3.30
2022-11-19T01:10:09.050Z,3.20
2022-11-19T01:11:09.099Z,3.40
2022-11-19T01:12:09.057Z,3.60
2022-11-19T01:13:09.019Z,3.70
2022-11-19T01:14:09.016Z,3.60
2022-11-19T01:15:08.988Z,3.30
2022-11-19T01:16:09.003Z,3.40
2022-11-19T01:17:08.987Z,3.70
2022-11-19T01:18:08.956Z,3.80
2022-11-19T01:19:08.959Z,3.20
2022-11-19T01:20:08.992Z,3.30
2022-11-19T01:21:08.962Z,3.70
2022-11-19T01:22:08.921Z,3.20
2022-11-19T01:23:08.924Z,3.30
2022-11-19T01:24:08.892Z,3.20
2022-11-19T01:25:08.887Z,3.40
2022-11-19T01:26:08.866Z,3.30
2022-11-19T01:27:09.023Z,2.90
2022-11-19T01:28:08.841Z,3.20
2022-11-19T01:29:08.885Z,3.00
2022-11-19T01:30:08.828Z,2.70
2022-11-19T01:31:08.832Z,2.80
2022-11-19T01:32:08.827Z,2.70
2022-11-19T01:33:08.793Z,2.60
2022-11-19T01:34:08.775Z,2.60
2022-11-19T01:35:08.801Z,2.50
2022-11-19T01:36:08.768Z,2.50
2022-11-19T01:37:08.769Z,2.50
2022-11-19T01:38:08.768Z,2.40
2022-11-19T01:39:08.749Z,2.30
2022-11-19T01:40:08.711Z,2.40
2022-11-19T01:41:08.708Z,2.50
2022-11-19T01:42:08.702Z,2.40
2022-11-19T01:43:08.705Z,2.30
2022-11-19T01:44:08.703Z,2.20
2022-11-19T01:45:08.660Z,2.20
2022-11-19T01:46:08.692Z,2.20
2022-11-19T01:47:08.649Z,2.50
2022-11-19T01:48:08.629Z,2.20
2022-11-19T01:49:08.608Z,2.30
2022-11-19T01:50:08.606Z,2.10
2022-11-19T01:51:08.586Z,2.00
2022-11-19T01:52:08.661Z,2.00
2022-11-19T01:53:08.574Z,1.80
2022-11-19T01:54:08.566Z,1.90
2022-11-19T01:55:08.541Z,1.90
2022-11-19T01:56:08.542Z,1.80
2022-11-19T01:57:08.548Z,1.80
2022-11-19T01:58:08.521Z,1.70
2022-11-19T01:59:08.535Z,1.80
2022-11-19T02:00:08.509Z,1.70
2022-11-19T02:01:08.518Z,1.80
2022-11-19T02:02:08.479Z,1.70
2022-11-19T02:03:08.458Z,1.80
2022-11-19T02:04:08.462Z,1.80
2022-11-19T02:05:08.450Z,1.90
2022-11-19T02:06:08.421Z,2.10
2022-11-19T02:07:08.480Z,1.90
2022-11-19T02:08:08.408Z,2.10
2022-11-19T02:09:08.402Z,1.90
2022-11-19T02:10:08.409Z,2.00
2022-11-19T02:11:08.375Z,2.10
2022-11-19T02:12:08.389Z,2.20
2022-11-19T02:13:08.391Z,2.20
2022-11-19T02:14:08.327Z,2.30
2022-11-19T02:15:08.338Z,2.30
2022-11-19T02:16:08.345Z,2.30
2022-11-19T02:17:08.327Z,2.20
2022-11-19T02:18:08.284Z,2.30
2022-11-19T02:19:08.295Z,2.50
2022-11-19T02:20:08.302Z,2.90
2022-11-19T02:21:08.250Z,2.50
2022-11-19T02:22:08.256Z,2.70
2022-11-19T02:23:08.278Z,2.60
2022-11-19T02:24:08.220Z,2.90
2022-11-19T02:25:08.205Z,2.90
2022-11-19T02:26:08.207Z,2.60
2022-11-19T02:27:08.188Z,3.20
2022-11-19T02:28:08.203Z,3.10
2022-11-19T02:29:08.201Z,2.90
2022-11-19T02:30:08.159Z,3.20
2022-11-19T02:31:08.158Z,3.30
2022-11-19T02:32:08.141Z,3.30
2022-11-19T02:33:08.130Z,3.20
2022-11-19T02:34:08.132Z,3.10
2022-11-19T02:35:08.093Z,3.30
2022-11-19T02:36:08.144Z,3.40
2022-11-19T02:37:08.099Z,3.30
2022-11-19T02:38:08.090Z,3.20
2022-11-19T02:39:08.067Z,3.50
2022-11-19T02:40:08.037Z,3.60
2022-11-19T02:41:08.077Z,3.60
2022-11-19T02:42:08.012Z,3.90
2022-11-19T02:43:08.023Z,3.60
2022-11-19T02:44:08.004Z,3.50
2022-11-19T02:45:07.991Z,3.60
2022-11-19T02:46:08.009Z,3.40
2022-11-19T02:47:07.985Z,3.70
2022-11-19T02:48:07.977Z,3.50
2022-11-19T02:49:07.968Z,3.70
2022-11-19T02:50:07.934Z,3.60
2022-11-19T02:51:07.939Z,3.50
2022-11-19T02:52:07.903Z,3.50
2022-11-19T02:53:07.908Z,3.40
2022-11-19T02:54:07.885Z,3.50
2022-11-19T02:55:08.270Z,3.70
2022-11-19T02:56:07.872Z,3.30
2022-11-19T02:57:07.864Z,3.60
2022-11-19T02:58:07.849Z,3.80
2022-11-19T02:59:07.831Z,3.40
2022-11-19T03:00:07.817Z,3.50
2022-11-19T03:01:07.896Z,3.30
2022-11-19T03:02:07.798Z,3.50
2022-11-19T03:03:07.886Z,3.40
2022-11-19T03:04:07.783Z,3.70
2022-11-19T03:05:07.785Z,3.60
2022-11-19T03:06:07.757Z,3.70
2022-11-19T03:07:07.777Z,3.60
2022-11-19T03:08:07.738Z,3.60
2022-11-19T03:09:07.754Z,3.60
2022-11-19T03:10:07.705Z,3.30
2022-11-19T03:11:07.697Z,3.70
2022-11-19T03:12:07.704Z,3.90
2022-11-19T03:13:07.692Z,3.80
2022-11-19T03:14:07.674Z,3.90
2022-11-19T03:15:07.649Z,3.70
2022-11-19T03:16:07.631Z,4.10
2022-11-19T03:17:07.663Z,3.70
2022-11-19T03:18:07.611Z,3.90
2022-11-19T03:19:07.668Z,3.90
2022-11-19T03:20:07.587Z,4.00
2022-11-19T03:21:07.587Z,4.00
2022-11-19T03:22:07.565Z,4.40
2022-11-19T03:23:07.565Z,4.50
2022-11-19T03:24:07.552Z,4.20
2022-11-19T03:25:07.584Z,4.50
2022-11-19T03:26:07.523Z,4.50
2022-11-19T03:27:07.512Z,4.50
2022-11-19T03:28:07.503Z,4.30
2022-11-19T03:29:07.487Z,4.20
2022-11-19T03:30:07.492Z,4.30
2022-11-19T03:31:07.503Z,4.60
2022-11-19T03:32:07.458Z,4.60
2022-11-19T03:33:07.459Z,4.40
2022-11-19T03:34:07.443Z,4.40
2022-11-19T03:35:07.545Z,4.60
2022-11-19T03:36:07.425Z,4.50
2022-11-19T03:37:07.400Z,4.30
2022-11-19T03:38:07.436Z,4.20
2022-11-19T03:39:07.377Z,4.90
2022-11-19T03:40:07.393Z,4.20
2022-11-19T03:41:07.358Z,4.90
2022-11-19T03:42:07.361Z,4.40
2022-11-19T03:43:07.333Z,4.30
2022-11-19T03:44:07.338Z,4.80
2022-11-19T03:45:07.324Z,4.70
2022-11-19T03:46:07.321Z,4.60
2022-11-19T03:47:07.298Z,5.10
2022-11-19T03:48:07.305Z,4.70
2022-11-19T03:49:07.269Z,5.20
2022-11-19T03:50:07.277Z,5.00
2022-11-19T03:51:07.259Z,5.00
2022-11-19T03:52:07.264Z,5.10
2022-11-19T03:53:07.234Z,5.30
2022-11-19T03:54:07.244Z,4.90
2022-11-19T03:55:07.211Z,5.10
2022-11-19T03:56:07.209Z,5.40
2022-11-19T03:57:07.181Z,5.90
2022-11-19T03:58:07.163Z,5.40
2022-11-19T03:59:08.557Z,5.60
2022-11-19T04:00:07.168Z,5.30
2022-11-19T04:01:07.131Z,5.50
2022-11-19T04:02:07.191Z,5.40
2022-11-19T04:03:07.108Z,5.30
2022-11-19T04:04:07.113Z,5.30
2022-11-19T04:05:07.088Z,5.30
2022-11-19T04:06:07.082Z,5.40
2022-11-19T04:07:07.163Z,5.30
2022-11-19T04:08:07.117Z,5.30
2022-11-19T04:09:07.043Z,5.10
2022-11-19T04:10:07.041Z,5.40
2022-11-19T04:11:36.792Z,6.20
2022-11-19T04:12:36.776Z,5.60
2022-11-19T04:13:36.758Z,5.30
2022-11-19T04:14:36.738Z,5.30
2022-11-19T04:15:36.773Z,5.50
2022-11-19T04:16:36.714Z,5.40
2022-11-19T04:17:36.725Z,5.20
2022-11-19T04:18:36.692Z,5.90
2022-11-19T04:19:36.702Z,5.90
2022-11-19T04:20:36.710Z,5.40
2022-11-19T04:21:36.661Z,5.20
2022-11-19T04:22:45.648Z,5.20
2022-11-19T04:23:36.644Z,5.50
2022-11-19T04:24:36.629Z,5.40
2022-11-19T04:25:36.638Z,5.80
2022-11-19T04:26:36.608Z,5.50
2022-11-19T04:27:36.598Z,5.70
2022-11-19T04:28:36.606Z,5.50
2022-11-19T04:29:36.584Z,5.30
2022-11-19T04:30:36.586Z,5.50
2022-11-19T04:31:36.605Z,4.90
2022-11-19T04:32:36.544Z,5.30
2022-11-19T04:33:36.526Z,5.10
2022-11-19T04:34:36.511Z,5.00
2022-11-19T04:35:36.532Z,5.00
2022-11-19T04:36:36.510Z,5.00
2022-11-19T04:37:36.496Z,5.60
2022-11-19T04:38:36.502Z,5.30
2022-11-19T04:39:36.458Z,5.20
2022-11-19T04:40:36.476Z,5.40
2022-11-19T04:41:36.441Z,5.20
2022-11-19T04:42:36.463Z,5.20
2022-11-19T04:43:36.429Z,5.50
2022-11-19T04:44:36.419Z,5.30
2022-11-19T04:45:36.393Z,5.50
2022-11-19T04:46:36.394Z,5.40
2022-11-19T04:47:36.372Z,5.90
2022-11-19T04:48:36.366Z,5.60
2022-11-19T04:49:36.404Z,5.80
2022-11-19T04:50:36.337Z,6.20
2022-11-19T04:51:36.334Z,6.20
2022-11-19T04:52:40.623Z,6.10
2022-11-19T04:53:36.310Z,6.20
2022-11-19T04:54:36.337Z,6.00
2022-11-19T04:55:36.318Z,6.20
2022-11-19T04:56:36.331Z,6.70
2022-11-19T04:57:36.259Z,6.50
2022-11-19T04:58:36.243Z,6.60
2022-11-19T04:59:36.256Z,6.60
2022-11-19T05:00:36.222Z,6.20
2022-11-19T05:01:36.258Z,6.40
2022-11-19T05:02:36.217Z,6.20
2022-11-19T05:03:36.200Z,6.80
2022-11-19T05:04:36.212Z,6.40
2022-11-19T05:05:36.177Z,6.40
2022-11-19T05:06:36.187Z,6.20
2022-11-19T05:07:36.203Z,6.40
2022-11-19T05:08:36.232Z,6.80
2022-11-19T05:09:36.153Z,6.20
2022-11-19T05:10:36.138Z,6.60
2022-11-19T05:11:36.124Z,6.20
2022-11-19T05:12:36.128Z,6.20
2022-11-19T05:13:36.138Z,5.90
2022-11-19T05:14:36.066Z,6.00
2022-11-19T05:15:36.066Z,6.40
2022-11-19T05:16:36.056Z,6.00
2022-11-19T05:17:36.059Z,5.90
2022-11-19T05:18:36.065Z,6.20
2022-11-19T05:19:36.033Z,6.00
2022-11-19T05:20:36.005Z,6.20
2022-11-19T05:21:36.113Z,6.10
2022-11-19T05:22:35.984Z,6.60
2022-11-19T05:23:35.988Z,6.00
2022-11-19T05:24:36.000Z,6.40
2022-11-19T05:25:36.007Z,6.60
2022-11-19T05:26:35.961Z,6.30
2022-11-19T05:27:35.969Z,6.40
2022-11-19T05:28:39.971Z,6.30
2022-11-19T05:29:35.935Z,6.40
2022-11-19T05:30:35.887Z,6.40
2022-11-19T05:31:35.877Z,6.70
2022-11-19T05:32:35.910Z,6.30
2022-11-19T05:33:35.891Z,6.30
2022-11-19T05:34:35.857Z,6.00
2022-11-19T05:35:35.898Z,6.50
2022-11-19T05:36:35.819Z,6.00
2022-11-19T05:37:35.810Z,6.60
2022-11-19T05:38:35.828Z,6.20
2022-11-19T05:39:35.798Z,6.50
2022-11-19T05:40:35.812Z,6.00
2022-11-19T05:41:35.765Z,6.00
2022-11-19T05:42:35.769Z,6.00
2022-11-19T05:43:35.758Z,6.20
2022-11-19T05:44:35.764Z,6.00
2022-11-19T05:45:35.763Z,6.00
2022-11-19T05:46:35.736Z,6.00
2022-11-19T05:47:35.757Z,5.80
2022-11-19T05:48:35.685Z,6.20
2022-11-19T05:49:35.690Z,5.90
2022-11-19T05:50:35.696Z,5.70
2022-11-19T05:51:35.668Z,5.90
2022-11-19T05:52:35.641Z,5.80
2022-11-19T05:53:35.628Z,5.70
2022-11-19T05:54:35.635Z,5.80
2022-11-19T05:55:35.639Z,5.90
2022-11-19T05:56:35.647Z,5.70
2022-11-19T05:57:35.606Z,5.60
2022-11-19T05:58:35.617Z,5.60
2022-11-19T05:59:38.497Z,5.40
2022-11-19T06:00:36.587Z,5.40
2022-11-19T06:01:35.563Z,6.20
2022-11-19T06:02:35.596Z,9.50
2022-11-19T06:03:35.547Z,6.40
2022-11-19T06:04:35.506Z,6.50
2022-11-19T06:05:40.015Z,5.90
2022-11-19T06:06:36.497Z,5.80
2022-11-19T06:07:35.540Z,7.10
2022-11-19T06:08:35.507Z,8.50
2022-11-19T06:09:35.450Z,7.90
2022-11-19T06:10:35.486Z,9.60
2022-11-19T06:11:35.429Z,10.50
2022-11-19T06:12:35.443Z,10.80
2022-11-19T06:13:35.419Z,11.30
2022-11-19T06:14:35.520Z,11.80
2022-11-19T06:15:35.384Z,9.10
2022-11-19T06:16:35.387Z,9.20
2022-11-19T06:17:35.367Z,8.70
2022-11-19T06:18:35.352Z,8.10
2022-11-19T06:19:35.347Z,7.60
2022-11-19T06:20:35.365Z,7.30
2022-11-19T06:21:35.365Z,7.30
2022-11-19T06:22:35.308Z,5.70
2022-11-19T06:23:35.304Z,5.80
2022-11-19T06:24:35.286Z,5.40
2022-11-19T06:25:35.295Z,5.30
2022-11-19T06:26:35.294Z,5.30
2022-11-19T06:27:35.310Z,5.40
2022-11-19T06:28:35.237Z,5.40
2022-11-19T06:29:35.246Z,5.40
2022-11-19T06:30:35.258Z,4.90
2022-11-19T06:31:35.234Z,4.80
2022-11-19T06:32:35.229Z,5.10
2022-11-19T06:33:35.180Z,7.70
2022-11-19T06:34:35.184Z,11.20
2022-11-19T06:35:35.158Z,12.50
2022-11-19T06:36:40.979Z,10.70
2022-11-19T06:37:36.193Z,8.40
2022-11-19T06:38:35.126Z,7.80
2022-11-19T06:39:35.114Z,6.90
2022-11-19T06:40:35.125Z,5.50
2022-11-19T06:41:35.096Z,6.10
2022-11-19T06:42:35.096Z,5.60
2022-11-19T06:43:35.101Z,5.30
2022-11-19T06:44:35.118Z,6.10
2022-11-19T06:45:35.053Z,6.40
2022-11-19T06:46:35.071Z,6.10
2022-11-19T06:47:35.047Z,7.60
2022-11-19T06:48:35.039Z,6.30
2022-11-19T06:49:35.015Z,6.40
2022-11-19T06:50:35.003Z,7.30
2022-11-19T06:51:34.987Z,11.70
2022-11-19T06:52:34.971Z,13.40
2022-11-19T06:53:35.000Z,18.70
2022-11-19T06:54:36.733Z,14.80
2022-11-19T06:55:35.952Z,14.10
2022-11-19T06:56:34.994Z,13.50
2022-11-19T06:57:34.919Z,11.10
2022-11-19T06:58:34.908Z,16.00
2022-11-19T06:59:34.901Z,15.20
2022-11-19T07:00:34.945Z,9.80
2022-11-19T07:01:34.957Z,8.20
2022-11-19T07:02:34.882Z,9.80
2022-11-19T07:03:34.858Z,6.10
2022-11-19T07:04:34.860Z,6.00
2022-11-19T07:05:34.849Z,5.40
2022-11-19T07:06:34.856Z,5.80
2022-11-19T07:07:34.941Z,9.80
2022-11-19T07:08:34.820Z,6.40
2022-11-19T07:09:34.805Z,7.30
2022-11-19T07:10:34.822Z,6.60
2022-11-19T07:11:34.799Z,6.20
2022-11-19T07:12:34.747Z,6.40
2022-11-19T07:13:34.734Z,7.90
2022-11-19T07:14:34.731Z,6.00
2022-11-19T07:15:34.717Z,6.60
2022-11-19T07:16:34.718Z,7.00
2022-11-19T07:17:34.757Z,7.70
2022-11-19T07:18:34.712Z,7.60
2022-11-19T07:19:34.669Z,7.30
2022-11-19T07:20:34.669Z,6.40
2022-11-19T07:21:34.664Z,6.50
2022-11-19T07:22:34.658Z,6.70
2022-11-19T07:23:34.621Z,5.40
2022-11-19T07:24:34.671Z,5.80
2022-11-19T07:25:34.598Z,14.20
2022-11-19T07:26:34.615Z,12.10
2022-11-19T07:27:34.590Z,6.40
2022-11-19T07:28:34.598Z,6.90
2022-11-19T07:29:34.553Z,6.80
2022-11-19T07:30:34.558Z,5.80
2022-11-19T07:31:34.548Z,7.50
2022-11-19T07:32:34.551Z,7.30
2022-11-19T07:33:34.525Z,9.10
2022-11-19T07:34:34.524Z,8.80
2022-11-19T07:35:34.489Z,9.40
2022-11-19T07:36:34.601Z,10.40
2022-11-19T07:37:34.496Z,9.40
2022-11-19T07:38:37.117Z,9.20
2022-11-19T07:39:34.464Z,8.40
2022-11-19T07:40:34.430Z,7.90
2022-11-19T07:41:34.421Z,5.60
2022-11-19T07:42:34.434Z,5.40
2022-11-19T07:43:34.432Z,4.80
2022-11-19T07:44:34.415Z,5.00
2022-11-19T07:45:34.405Z,4.50
2022-11-19T07:46:34.403Z,4.70
2022-11-19T07:47:34.406Z,4.90
2022-11-19T07:48:34.346Z,4.80
2022-11-19T07:49:34.367Z,4.70
2022-11-19T07:50:34.402Z,4.10
2022-11-19T07:51:34.336Z,4.30
2022-11-19T07:52:34.298Z,4.60
2022-11-19T07:53:34.295Z,4.10
2022-11-19T07:54:34.293Z,4.20
2022-11-19T07:55:34.268Z,4.10
2022-11-19T07:56:34.277Z,4.00
2022-11-19T07:57:34.238Z,4.20
2022-11-19T07:58:34.260Z,4.00
2022-11-19T07:59:34.661Z,4.10
2022-11-19T08:00:34.230Z,4.20
2022-11-19T08:01:34.256Z,4.50
2022-11-19T08:02:34.219Z,4.00
2022-11-19T08:03:34.172Z,4.00
2022-11-19T08:04:34.172Z,4.20
2022-11-19T08:05:34.175Z,4.20
2022-11-19T08:06:34.156Z,4.20
2022-11-19T08:07:34.183Z,4.20
2022-11-19T08:08:34.122Z,3.90
2022-11-19T08:09:34.139Z,4.00
2022-11-19T08:10:34.155Z,3.80
2022-11-19T08:11:34.092Z,4.30
2022-11-19T08:12:34.114Z,4.20
2022-11-19T08:13:34.089Z,4.40
2022-11-19T08:14:34.049Z,3.90
2022-11-19T08:15:34.036Z,4.50
2022-11-19T08:16:34.112Z,4.70
2022-11-19T08:17:34.036Z,5.00
2022-11-19T08:18:34.020Z,4.20
2022-11-19T08:19:34.017Z,3.90
2022-11-19T08:20:33.985Z,3.90
2022-11-19T08:21:33.970Z,4.40
2022-11-19T08:22:34.041Z,4.40
2022-11-19T08:23:33.950Z,4.50
2022-11-19T08:24:33.951Z,4.50
2022-11-19T08:25:33.941Z,4.60
2022-11-19T08:26:33.977Z,4.90
2022-11-19T08:27:33.905Z,4.20
2022-11-19T08:28:33.925Z,4.30
2022-11-19T08:29:33.888Z,4.10
2022-11-19T08:30:33.890Z,4.30
2022-11-19T08:31:33.858Z,4.10
2022-11-19T08:32:33.893Z,3.80
2022-11-19T08:33:33.837Z,4.30
2022-11-19T08:34:33.877Z,4.60
2022-11-19T08:35:33.826Z,5.50
2022-11-19T08:36:33.833Z,6.10
2022-11-19T08:37:33.823Z,4.90
2022-11-19T08:38:38.412Z,4.60
2022-11-19T08:39:35.206Z,4.30
2022-11-19T08:40:33.791Z,4.10
2022-11-19T08:41:33.765Z,4.10
2022-11-19T08:42:33.754Z,3.70
2022-11-19T08:43:33.724Z,3.80
2022-11-19T08:44:33.729Z,4.10
2022-11-19T08:45:33.702Z,5.30
2022-11-19T08:46:33.701Z,4.60
2022-11-19T08:47:33.706Z,4.10
2022-11-19T08:48:33.696Z,4.10
2022-11-19T08:49:33.658Z,4.60
2022-11-19T08:50:33.681Z,4.30
2022-11-19T08:51:33.640Z,3.90
2022-11-19T08:52:33.676Z,4.40
2022-11-19T08:53:33.636Z,6.20
2022-11-19T08:54:33.657Z,6.60
2022-11-19T08:55:33.602Z,6.10
2022-11-19T08:56:33.585Z,6.90
2022-11-19T08:57:33.596Z,5.90
2022-11-19T08:58:33.577Z,4.50
2022-11-19T08:59:33.584Z,5.00
2022-11-19T09:00:33.583Z,4.70
2022-11-19T09:01:33.528Z,4.80
2022-11-19T09:02:33.513Z,5.30
2022-11-19T09:03:33.511Z,5.20
2022-11-19T09:04:33.503Z,4.60
2022-11-19T09:05:33.481Z,4.80
2022-11-19T09:06:33.468Z,3.80
2022-11-19T09:07:33.536Z,4.40
2022-11-19T09:08:33.458Z,4.40
2022-11-19T09:09:33.471Z,4.50
2022-11-19T09:10:33.464Z,4.90
2022-11-19T09:11:36.210Z,4.60
2022-11-19T09:12:34.403Z,4.60
2022-11-19T09:13:33.385Z,4.80
2022-11-19T09:14:33.394Z,5.40
2022-11-19T09:15:33.394Z,4.30
2022-11-19T09:16:33.379Z,4.10
2022-11-19T09:17:33.344Z,3.70
2022-11-19T09:18:33.340Z,3.80
2022-11-19T09:19:33.317Z,3.80
2022-11-19T09:20:33.307Z,3.70
2022-11-19T09:21:33.332Z,3.50
2022-11-19T09:22:33.314Z,3.60
2022-11-19T09:23:33.272Z,3.50
2022-11-19T09:24:33.320Z,3.50
2022-11-19T09:25:33.254Z,3.30
2022-11-19T09:26:33.298Z,3.50
2022-11-19T09:27:33.243Z,3.80
2022-11-19T09:28:33.217Z,3.80
2022-11-19T09:29:33.222Z,3.90
2022-11-19T09:30:33.205Z,3.70
2022-11-19T09:31:33.216Z,3.60
2022-11-19T09:32:33.190Z,3.30
2022-11-19T09:33:33.177Z,3.40
2022-11-19T09:34:33.183Z,3.40
2022-11-19T09:35:33.139Z,3.70
2022-11-19T09:36:33.128Z,4.30
2022-11-19T09:37:33.154Z,4.40
2022-11-19T09:38:33.124Z,5.10
2022-11-19T09:39:33.120Z,5.00
2022-11-19T09:40:33.124Z,4.10
2022-11-19T09:41:33.073Z,4.50
2022-11-19T09:42:33.101Z,4.40
2022-11-19T09:43:33.055Z,4.30
2022-11-19T09:44:33.076Z,3.90
2022-11-19T09:45:33.046Z,3.30
2022-11-19T09:46:33.023Z,3.70
2022-11-19T09:47:33.062Z,3.70
2022-11-19T09:48:32.990Z,4.00
2022-11-19T09:49:32.998Z,3.70
2022-11-19T09:50:32.984Z,3.30
2022-11-19T09:51:33.046Z,3.60
2022-11-19T09:52:32.951Z,3.30
2022-11-19T09:53:32.958Z,3.20
2022-11-19T09:54:32.945Z,3.40
2022-11-19T09:55:32.930Z,3.30
2022-11-19T09:56:32.916Z,3.70
2022-11-19T09:57:32.957Z,4.10
2022-11-19T09:58:32.920Z,3.90
2022-11-19T09:59:32.871Z,3.60
2022-11-19T10:00:32.870Z,3.90
2022-11-19T10:01:32.872Z,4.20
2022-11-19T10:02:32.853Z,4.10
2022-11-19T10:03:33.897Z,4.00
2022-11-19T10:04:32.814Z,4.70
2022-11-19T10:05:32.827Z,5.10
2022-11-19T10:06:32.837Z,4.80
2022-11-19T10:07:32.855Z,3.90
2022-11-19T10:08:32.766Z,3.80
2022-11-19T10:09:32.756Z,4.60
2022-11-19T10:10:32.774Z,4.60
2022-11-19T10:11:32.750Z,4.30
2022-11-19T10:12:32.745Z,4.10
2022-11-19T10:13:32.756Z,4.30
2022-11-19T10:14:32.778Z,4.50
2022-11-19T10:15:37.388Z,4.60
2022-11-19T10:16:33.703Z,4.70
2022-11-19T10:17:32.676Z,4.50
2022-11-19T10:18:32.679Z,4.60
2022-11-19T10:19:32.689Z,4.40
2022-11-19T10:20:32.647Z,5.60
2022-11-19T10:21:32.644Z,4.60
2022-11-19T10:22:32.617Z,4.30
2022-11-19T10:23:32.598Z,4.30
2022-11-19T10:24:32.595Z,4.30
2022-11-19T10:25:32.577Z,4.30
2022-11-19T10:26:32.632Z,3.90
2022-11-19T10:27:32.580Z,3.90
2022-11-19T10:28:32.561Z,3.40
2022-11-19T10:29:32.556Z,3.70
2022-11-19T10:30:32.551Z,4.10
2022-11-19T10:31:32.549Z,4.50
2022-11-19T10:32:32.495Z,4.30
2022-11-19T10:33:32.508Z,3.90
2022-11-19T10:34:32.496Z,4.00
2022-11-19T10:35:32.487Z,4.10
2022-11-19T10:36:32.480Z,4.10
2022-11-19T10:37:32.455Z,3.90
2022-11-19T10:38:32.428Z,4.40
2022-11-19T10:39:32.446Z,4.10
2022-11-19T10:40:32.445Z,3.50
2022-11-19T10:41:32.428Z,3.50
2022-11-19T10:42:32.424Z,3.10
2022-11-19T10:43:32.389Z,3.50
2022-11-19T10:44:32.373Z,3.50
2022-11-19T10:45:32.370Z,3.30
2022-11-19T10:46:32.391Z,3.20
2022-11-19T10:47:32.339Z,3.50
2022-11-19T10:48:32.404Z,3.30
2022-11-19T10:49:32.365Z,3.60
2022-11-19T10:50:32.295Z,3.80
2022-11-19T10:51:32.310Z,3.80
2022-11-19T10:52:32.316Z,4.10
2022-11-19T10:53:32.285Z,4.50
2022-11-19T10:54:32.255Z,4.20
2022-11-19T10:55:32.314Z,4.20
2022-11-19T10:56:32.300Z,4.40
2022-11-19T10:57:32.235Z,4.30
2022-11-19T10:58:32.219Z,4.20
2022-11-19T10:59:32.221Z,3.90
2022-11-19T11:00:32.179Z,3.80
2022-11-19T11:01:32.246Z,4.10
2022-11-19T11:02:32.187Z,4.20
2022-11-19T11:03:32.165Z,4.00
2022-11-19T11:04:32.149Z,3.90
2022-11-19T11:05:32.157Z,3.70
2022-11-19T11:06:32.130Z,3.20
2022-11-19T11:07:32.123Z,2.20
2022-11-19T11:08:32.090Z,2.20
2022-11-19T11:09:32.095Z,2.00
2022-11-19T11:10:32.132Z,2.10
2022-11-19T11:11:32.111Z,1.80
2022-11-19T11:12:32.044Z,2.10
2022-11-19T11:13:32.042Z,3.10
2022-11-19T11:14:32.027Z,2.10
2022-11-19T11:15:32.055Z,2.60
2022-11-19T11:16:37.574Z,1.90
2022-11-19T11:17:33.025Z,2.00
2022-11-19T11:18:31.995Z,1.80
2022-11-19T11:19:32.003Z,1.90
2022-11-19T11:20:31.989Z,1.60
2022-11-19T11:21:31.955Z,2.10
2022-11-19T11:22:31.963Z,1.90
2022-11-19T11:23:31.925Z,2.80
2022-11-19T11:24:31.918Z,2.30
2022-11-19T11:25:31.933Z,2.50
2022-11-19T11:26:31.915Z,2.70
2022-11-19T11:27:31.934Z,2.60
2022-11-19T11:28:31.864Z,3.00
2022-11-19T11:29:31.853Z,2.70
2022-11-19T11:30:31.856Z,2.80
2022-11-19T11:31:31.862Z,2.90
2022-11-19T11:32:31.825Z,3.00
2022-11-19T11:33:31.807Z,3.00
2022-11-19T11:34:31.812Z,2.80
2022-11-19T11:35:31.788Z,2.40
2022-11-19T11:36:31.880Z,2.50
2022-11-19T11:37:31.782Z,2.70
2022-11-19T11:38:31.783Z,3.20
2022-11-19T11:39:31.740Z,3.00
2022-11-19T11:40:31.800Z,2.60
2022-11-19T11:42:32.721Z,2.70
2022-11-19T11:43:31.731Z,3.10
2022-11-19T11:44:31.727Z,3.10
2022-11-19T11:45:31.677Z,2.80
2022-11-19T11:46:31.673Z,4.00
2022-11-19T11:47:31.659Z,4.20
2022-11-19T11:48:31.637Z,4.10
2022-11-19T11:49:31.663Z,4.00
2022-11-19T11:50:31.636Z,3.90
2022-11-19T11:51:31.653Z,3.10
2022-11-19T11:52:31.615Z,3.20
2022-11-19T11:53:31.598Z,3.00
2022-11-19T11:54:31.578Z,3.00
2022-11-19T11:55:31.600Z,3.10
2022-11-19T11:56:31.547Z,3.50
2022-11-19T11:57:31.552Z,3.20
2022-11-19T11:58:31.525Z,2.90
2022-11-19T11:59:31.542Z,2.90
2022-11-19T12:00:31.516Z,3.20
2022-11-19T12:01:31.507Z,2.90
2022-11-19T12:02:31.646Z,2.60
2022-11-19T12:03:31.471Z,2.60
2022-11-19T12:04:31.463Z,3.00
2022-11-19T12:05:31.494Z,3.00
2022-11-19T12:06:31.558Z,2.90
2022-11-19T12:07:31.531Z,2.70
2022-11-19T12:08:31.425Z,2.10
2022-11-19T12:09:31.404Z,1.80
2022-11-19T12:10:31.409Z,2.10
2022-11-19T12:11:31.411Z,1.90
2022-11-19T12:12:31.383Z,1.80
2022-11-19T12:13:31.396Z,2.10
2022-11-19T12:14:31.350Z,2.00
2022-11-19T12:15:31.338Z,2.10
2022-11-19T12:16:31.365Z,2.00
2022-11-19T12:17:31.349Z,1.90
2022-11-19T12:18:31.341Z,1.90
2022-11-19T12:19:31.292Z,2.50
2022-11-19T12:20:31.278Z,2.60
2022-11-19T12:21:31.362Z,2.30
2022-11-19T12:22:31.293Z,2.10
2022-11-19T12:23:31.269Z,2.10
2022-11-19T12:24:31.269Z,2.30
2022-11-19T12:25:31.223Z,2.00
2022-11-19T12:26:31.285Z,2.10
2022-11-19T12:27:31.216Z,2.20
2022-11-19T12:28:31.191Z,1.70
2022-11-19T12:29:31.244Z,2.00
2022-11-19T12:30:31.163Z,2.10
2022-11-19T12:31:31.173Z,1.90
2022-11-19T12:32:31.159Z,2.00
2022-11-19T12:33:31.157Z,2.00
2022-11-19T12:34:31.131Z,1.90
2022-11-19T12:35:31.137Z,1.90
2022-11-19T12:36:31.097Z,1.80
2022-11-19T12:37:31.096Z,2.00
2022-11-19T12:38:31.125Z,2.20
2022-11-19T12:39:31.068Z,2.10
2022-11-19T12:40:38.477Z,2.30
2022-11-19T12:41:32.044Z,2.30
2022-11-19T12:42:31.042Z,2.90
2022-11-19T12:43:31.101Z,2.30
2022-11-19T12:44:31.023Z,2.00
2022-11-19T12:45:30.998Z,1.90
2022-11-19T12:46:31.008Z,1.90
2022-11-19T12:47:30.975Z,1.80
2022-11-19T12:48:30.975Z,1.90
2022-11-19T12:49:30.988Z,1.70
2022-11-19T12:50:30.953Z,1.80
2022-11-19T12:51:30.972Z,1.80
2022-11-19T12:52:30.945Z,1.80
2022-11-19T12:53:30.916Z,2.10
2022-11-19T12:54:35.157Z,2.00
2022-11-19T12:55:30.887Z,1.80
2022-11-19T12:56:30.882Z,2.10
2022-11-19T12:57:30.873Z,2.80
2022-11-19T12:58:30.851Z,3.20
2022-11-19T12:59:30.856Z,3.20
2022-11-19T13:00:30.824Z,3.50
2022-11-19T13:01:30.865Z,3.10
2022-11-19T13:02:30.867Z,2.70
2022-11-19T13:03:30.847Z,2.20
2022-11-19T13:04:30.781Z,2.00
2022-11-19T13:05:30.769Z,1.50
2022-11-19T13:06:30.759Z,1.40
2022-11-19T13:07:30.773Z,1.60
2022-11-19T13:08:30.760Z,1.30
2022-11-19T13:09:30.755Z,1.60
2022-11-19T13:10:30.731Z,1.60
2022-11-19T13:11:30.705Z,1.60
2022-11-19T13:12:30.726Z,1.70
2022-11-19T13:13:30.685Z,1.80
2022-11-19T13:14:30.683Z,1.50
2022-11-19T13:15:30.703Z,1.50
2022-11-19T13:16:30.662Z,1.60
2022-11-19T13:17:30.635Z,1.80
2022-11-19T13:18:30.636Z,1.60